Wall, SD (57790)

12:27 PM MDT on July 25, 2014 (GMT -0600)
Philip (KPHP) Elev 2208 ft | 44.05 °N, 101.60 °W | Change Station

Current weather conditions updated 32 minutes ago

Clear
Clear
83 °F
Feels Like 83 °F
N
12
Wind Variable Wind from North
Gusts 23 mph

Today is forecast to be Much Cooler than yesterday.

Today
High -- | Low -- °F
--% Chance of Precip.
Yesterday
High -- | Low -- °F
Precip. -- in
5:29 AM 8:20 PM
Waning Crescent, 1% visible
Pressure 29.84 in
Visibility 10.0 miles
Clouds Clear
Dew Point 42 °F
Humidity 24%
Rainfall 0.00 in
Snow Depth Not available.
UV 10 out of 12
Pollen 7.30 out of 12
Air Quality Not available.
Flu Activity Not available.
METAR KPHP 251755Z AUTO 01010G20KT 10SM CLR 28/06 A2991 RMK AO2 SLP104 T02830056 10283 20189 58003

More Conditions Fewer Conditions

Pressure 29.84 in
Visibility 10.0 miles
Clouds Clear
Dew Point 42 °F
Humidity 24%
Rainfall 0.00 in
Snow Depth Not available.
UV 10 out of 12
Pollen 7.30 out of 12
Air Quality Not available.
Flu Activity Not available.
METAR KPHP 251755Z AUTO 01010G20KT 10SM CLR 28/06 A2991 RMK AO2 SLP104 T02830056 10283 20189 58003

More Conditions Fewer Conditions

10-Day Weather Forecast

Almanac

Astronomy

Jul. 25, 2014 Rise Set
Actual Time 5:29 AM MDT 8:20 PM MDT
Civil Twilight 4:55 AM MDT 8:54 PM MDT
Nautical Twilight 4:13 AM MDT 9:36 PM MDT
Astronomical Twilight 3:22 AM MDT 10:26 PM MDT
Moon 4:32 AM MDT 7:16 PM MDT
Length of Visible Light 15h 58m
Length of Day
14h 50m
Tomorrow will be 2m 4s shorter.
Waning Crescent, 1% of the Moon is Illuminated
Today
Waning Crescent
Jul 26
New
Aug 3
First Quarter
Aug 10
Full
Aug 17
Last Quarter

Today's Extremes

State Highs State Lows

Community

WunderPhotos

Upload Photos

1,737,372 photos uploaded!

Nearby

Snow Depth

Station Depth Elevation
Blind Park 0 in 6890 ft

Earthquake Activity

City Distance Mag. Time & Date
No recent earthquake activity has been reported nearby.
Minimum magnitude displayed is 2.5.

Coastal Water Temperatures

Place Temperature
No Stations Reporting

Nearby Weather Stations

Station Location Temp. Heat Index Dew Point Humidity Wind Precip. Elev Updated Type
RAWS PINNACLES SD, Wall, SD 76 °F 77 °F 44 °F 32% NNW  at  12 mph 0.00 in / hr 3080 ft 11:20 AM MDT MADIS

Show More Stations Show Fewer Stations